Time;durP1;ratioP1;P1;durP2;ratioP2;P2;SDS_P1;SDS_P2;PMS_P1;PMS_P2;Temp;Humidity;BMP_temperature;BMP_pressure;BME280_temperature;BME280_humidity;BME280_pressure;Samples;Min_cycle;Max_cycle;Signal;HPM_P1;HPM_P2
2023/10/30 00:01:45;;;;;;;1.73;0.90;;;16.40;71.70;;;;;;5136091;27;20684;-66
2023/10/30 00:04:10;;;;;;;2.28;0.73;;;16.40;71.80;;;;;;5135518;27;20554;-66
2023/10/30 00:06:36;;;;;;;2.28;0.90;;;16.40;71.70;;;;;;5135116;27;20176;-67
2023/10/30 00:09:02;;;;;;;1.13;0.63;;;16.40;71.90;;;;;;5135620;27;20176;-68
2023/10/30 00:11:27;;;;;;;1.13;0.68;;;16.40;71.90;;;;;;5135990;27;20173;-69
2023/10/30 00:13:53;;;;;;;2.45;0.82;;;16.40;71.80;;;;;;5135121;27;20222;-67
2023/10/30 00:16:18;;;;;;;2.08;0.75;;;16.40;72.00;;;;;;5135526;27;20176;-68
2023/10/30 00:18:45;;;;;;;0.90;0.80;;;16.30;71.80;;;;;;5135777;27;20641;-67
2023/10/30 00:21:11;;;;;;;3.08;0.85;;;16.40;71.80;;;;;;5134526;27;20172;-67
2023/10/30 00:23:40;;;;;;;1.70;1.10;;;16.30;71.90;;;;;;5135515;27;20580;-66
2023/10/30 00:26:05;;;;;;;1.65;0.90;;;16.40;72.10;;;;;;5134989;27;20173;-68
2023/10/30 00:28:32;;;;;;;3.03;0.90;;;16.40;72.10;;;;;;5134847;27;20172;-67
2023/10/30 00:30:59;;;;;;;1.52;0.80;;;16.30;72.00;;;;;;5135491;27;20545;-69
2023/10/30 00:33:25;;;;;;;3.47;1.13;;;16.30;72.00;;;;;;5134970;27;20251;-69
2023/10/30 00:35:50;;;;;;;1.40;0.88;;;16.30;72.10;;;;;;5134467;27;20255;-68
2023/10/30 00:38:16;;;;;;;1.90;1.00;;;16.30;72.00;;;;;;5134867;27;20247;-68
2023/10/30 00:40:41;;;;;;;1.52;1.02;;;16.30;72.10;;;;;;5135154;27;20168;-68
2023/10/30 00:43:07;;;;;;;1.20;0.90;;;16.30;72.10;;;;;;5134201;27;20176;-68
2023/10/30 00:45:32;;;;;;;2.28;0.98;;;16.30;72.10;;;;;;5135323;27;20172;-68
2023/10/30 00:47:58;;;;;;;2.35;0.90;;;16.20;72.10;;;;;;5134765;27;20220;-69
2023/10/30 00:50:23;;;;;;;1.88;1.00;;;16.20;72.00;;;;;;5134064;27;20180;-69
2023/10/30 00:52:49;;;;;;;1.25;0.80;;;16.30;72.20;;;;;;5134837;27;20161;-68
2023/10/30 00:55:14;;;;;;;2.47;1.05;;;16.30;72.20;;;;;;5133665;27;20265;-69
2023/10/30 00:57:40;;;;;;;1.10;0.80;;;16.20;72.10;;;;;;5134959;27;20161;-68
2023/10/30 01:00:06;;;;;;;2.92;1.00;;;16.20;72.10;;;;;;5134670;27;20241;-67
2023/10/30 01:02:32;;;;;;;3.78;1.10;;;16.30;72.00;;;;;;5134157;27;20287;-67
2023/10/30 01:04:57;;;;;;;2.00;1.02;;;16.20;72.20;;;;;;5134672;27;20259;-67
2023/10/30 01:07:23;;;;;;;1.85;0.90;;;16.20;72.00;;;;;;5134446;27;20173;-68
2023/10/30 01:09:49;;;;;;;2.28;1.00;;;16.20;72.00;;;;;;5133892;27;20229;-68
2023/10/30 01:12:14;;;;;;;2.83;1.05;;;16.20;72.10;;;;;;5134430;27;20172;-69
2023/10/30 01:14:40;;;;;;;2.33;1.10;;;16.20;71.80;;;;;;5134459;27;20212;-68
2023/10/30 01:17:05;;;;;;;1.25;1.00;;;16.20;71.90;;;;;;5133464;27;20172;-68
2023/10/30 01:19:31;;;;;;;2.17;0.90;;;16.20;72.10;;;;;;5134397;27;20182;-68
2023/10/30 01:21:56;;;;;;;1.98;0.80;;;16.20;72.10;;;;;;5134249;27;20181;-67
2023/10/30 01:24:22;;;;;;;2.13;1.20;;;16.20;72.10;;;;;;5133250;27;20188;-68
2023/10/30 01:26:47;;;;;;;2.05;1.30;;;16.20;72.00;;;;;;5134455;27;20182;-68
2023/10/30 01:29:13;;;;;;;4.03;1.65;;;16.20;72.10;;;;;;5134164;27;20176;-68
2023/10/30 01:31:39;;;;;;;2.10;1.00;;;16.20;72.10;;;;;;5133518;27;20172;-68
2023/10/30 01:34:05;;;;;;;1.10;0.80;;;16.20;72.00;;;;;;5133837;27;20675;-67
2023/10/30 01:36:31;;;;;;;1.05;0.77;;;16.10;72.10;;;;;;5134136;27;20208;-67
2023/10/30 01:38:58;;;;;;;2.80;1.27;;;16.20;72.10;;;;;;5133565;27;20251;-67
2023/10/30 01:41:23;;;;;;;3.25;1.02;;;16.20;72.00;;;;;;5134473;27;20180;-68
2023/10/30 01:43:49;;;;;;;2.25;0.90;;;16.20;72.00;;;;;;5134270;27;20289;-67
2023/10/30 01:46:15;;;;;;;1.17;0.90;;;16.20;72.10;;;;;;5132652;27;20173;-69
2023/10/30 01:48:41;;;;;;;3.03;1.25;;;16.10;72.00;;;;;;5133612;27;20250;-69
2023/10/30 01:51:06;;;;;;;1.98;1.13;;;16.20;72.00;;;;;;5133660;27;20539;-68
2023/10/30 01:53:33;;;;;;;3.17;1.13;;;16.20;72.00;;;;;;5133357;27;20169;-69
2023/10/30 01:55:59;;;;;;;1.88;0.93;;;16.10;72.00;;;;;;5115782;28;20191;-68
2023/10/30 01:58:25;;;;;;;1.42;0.90;;;16.10;72.10;;;;;;5116111;28;20165;-68
2023/10/30 02:00:50;;;;;;;3.97;1.17;;;16.10;72.00;;;;;;5133237;27;20512;-67
2023/10/30 02:03:16;;;;;;;2.28;1.00;;;16.10;72.00;;;;;;5133443;28;20589;-67
2023/10/30 02:05:42;;;;;;;2.17;0.90;;;16.10;72.10;;;;;;5132856;28;20172;-68
2023/10/30 02:08:09;;;;;;;4.32;1.50;;;16.10;71.90;;;;;;5133663;28;20575;-67
2023/10/30 02:10:34;;;;;;;1.55;1.00;;;16.10;72.00;;;;;;5133757;28;20172;-68
2023/10/30 02:13:04;;;;;;;2.90;1.00;;;16.10;72.00;;;;;;5132938;28;20174;-68
2023/10/30 02:15:29;;;;;;;0.95;0.70;;;16.10;72.00;;;;;;5133747;28;20666;-68
2023/10/30 02:17:55;;;;;;;1.92;1.10;;;16.10;71.90;;;;;;5133654;28;20168;-67
2023/10/30 02:20:20;;;;;;;2.70;1.20;;;16.10;72.00;;;;;;5132620;28;20204;-67
2023/10/30 02:22:46;;;;;;;2.60;0.80;;;16.10;72.00;;;;;;5115390;28;20246;-68
2023/10/30 02:25:11;;;;;;;1.95;1.20;;;16.10;72.00;;;;;;5133496;28;20172;-67
2023/10/30 02:27:37;;;;;;;2.38;1.10;;;16.10;72.00;;;;;;5132965;28;20185;-68
2023/10/30 02:30:03;;;;;;;2.95;1.27;;;16.10;72.00;;;;;;5133638;28;20169;-67
2023/10/30 02:32:28;;;;;;;1.80;0.88;;;16.10;72.00;;;;;;5133659;28;20176;-68
2023/10/30 02:34:54;;;;;;;1.40;1.02;;;16.10;72.00;;;;;;5132672;28;20200;-68
2023/10/30 02:37:19;;;;;;;1.20;1.10;;;16.10;72.70;;;;;;5133081;28;20167;-68
2023/10/30 02:39:45;;;;;;;2.78;1.13;;;16.10;72.00;;;;;;5133697;28;20225;-68
2023/10/30 02:42:10;;;;;;;2.88;1.08;;;16.10;72.00;;;;;;5132552;28;20165;-68
2023/10/30 02:44:36;;;;;;;3.20;0.98;;;16.10;71.90;;;;;;5133300;28;20177;-68
2023/10/30 02:47:02;;;;;;;2.00;1.02;;;16.10;72.00;;;;;;5132994;28;20178;-68
2023/10/30 02:49:28;;;;;;;1.98;1.17;;;16.10;72.00;;;;;;5132564;28;20267;-70
2023/10/30 02:51:53;;;;;;;3.95;1.48;;;16.10;72.00;;;;;;5133611;28;20256;-69
2023/10/30 02:54:19;;;;;;;1.58;0.93;;;16.10;72.00;;;;;;5133146;28;20291;-69
2023/10/30 02:56:45;;;;;;;2.97;1.38;;;16.10;72.00;;;;;;5132668;28;20255;-68
2023/10/30 02:59:11;;;;;;;3.45;0.90;;;16.10;71.80;;;;;;5134350;27;20225;-67
2023/10/30 03:01:36;;;;;;;2.80;0.95;;;16.10;72.00;;;;;;5137252;27;20176;-67
2023/10/30 03:04:02;;;;;;;2.85;1.05;;;16.10;72.00;;;;;;5135946;27;20518;-67
2023/10/30 03:06:27;;;;;;;3.95;1.23;;;16.00;71.80;;;;;;5137301;27;20641;-67
2023/10/30 03:08:53;;;;;;;1.98;1.02;;;16.00;71.80;;;;;;5136228;27;20180;-69
2023/10/30 03:11:18;;;;;;;2.40;0.90;;;16.10;71.90;;;;;;5136850;27;20184;-69
2023/10/30 03:13:44;;;;;;;2.03;0.95;;;16.00;71.90;;;;;;5136887;27;20707;-69
2023/10/30 03:16:10;;;;;;;2.45;1.00;;;16.10;72.00;;;;;;5135918;27;20184;-68
2023/10/30 03:18:35;;;;;;;2.33;1.00;;;16.00;71.90;;;;;;5136737;27;20635;-68
2023/10/30 03:21:01;;;;;;;2.40;1.20;;;16.00;71.90;;;;;;5136600;27;20257;-68
2023/10/30 03:23:26;;;;;;;1.52;1.05;;;16.00;71.90;;;;;;5136128;27;20196;-67
2023/10/30 03:25:52;;;;;;;1.98;0.95;;;16.00;71.80;;;;;;5136778;27;20169;-68
2023/10/30 03:28:18;;;;;;;2.03;1.20;;;16.10;72.00;;;;;;5136231;27;20919;-67
2023/10/30 03:30:44;;;;;;;2.90;0.93;;;16.00;71.90;;;;;;5135656;27;20183;-68
2023/10/30 03:33:09;;;;;;;2.10;1.10;;;16.00;71.90;;;;;;5136032;27;20176;-68
2023/10/30 03:35:37;;;;;;;3.10;1.20;;;16.10;72.00;;;;;;5136419;27;20242;-68
2023/10/30 03:38:05;;;;;;;3.47;1.55;;;16.00;71.90;;;;;;5135701;27;20251;-68
2023/10/30 03:40:31;;;;;;;2.50;1.02;;;16.10;72.00;;;;;;5136416;27;20175;-68
2023/10/30 03:42:57;;;;;;;2.78;1.33;;;16.00;71.90;;;;;;5136359;27;20173;-68
2023/10/30 03:45:22;;;;;;;1.92;1.08;;;16.00;71.90;;;;;;5135410;27;20176;-68
2023/10/30 03:47:48;;;;;;;2.00;1.25;;;16.00;71.90;;;;;;5135894;27;20297;-68
2023/10/30 03:50:14;;;;;;;2.55;1.08;;;16.00;71.90;;;;;;5136087;27;20179;-69
2023/10/30 03:52:40;;;;;;;3.80;1.00;;;16.00;71.90;;;;;;5135385;27;20173;-68
2023/10/30 03:55:06;;;;;;;3.22;1.20;;;16.00;72.00;;;;;;5135870;27;20219;-69
2023/10/30 03:57:32;;;;;;;3.05;1.17;;;16.00;71.90;;;;;;5136292;27;20168;-68
2023/10/30 03:59:57;;;;;;;2.65;1.35;;;16.00;72.00;;;;;;5135312;27;20179;-68
2023/10/30 04:02:23;;;;;;;3.20;0.98;;;16.00;72.00;;;;;;5135779;27;20172;-67
2023/10/30 04:04:48;;;;;;;2.58;0.98;;;16.00;71.90;;;;;;5136143;27;20202;-67
2023/10/30 04:07:14;;;;;;;2.42;1.02;;;16.00;72.00;;;;;;5135049;27;20168;-69
2023/10/30 04:09:39;;;;;;;4.00;1.00;;;16.00;72.00;;;;;;5135507;27;20179;-68
2023/10/30 04:12:05;;;;;;;3.10;1.23;;;16.00;72.00;;;;;;5135390;27;20192;-69
2023/10/30 04:14:31;;;;;;;3.08;1.00;;;16.00;72.00;;;;;;5135096;27;20196;-68
2023/10/30 04:16:57;;;;;;;1.67;1.10;;;16.00;72.00;;;;;;5135663;27;20171;-68
2023/10/30 04:19:23;;;;;;;2.40;1.10;;;16.00;71.90;;;;;;5134963;27;20232;-67
2023/10/30 04:21:48;;;;;;;2.25;1.23;;;16.00;71.90;;;;;;5135803;27;20165;-67
2023/10/30 04:24:14;;;;;;;1.52;0.90;;;16.00;72.00;;;;;;5135326;27;20189;-67
2023/10/30 04:26:39;;;;;;;2.95;1.20;;;16.00;72.00;;;;;;5134844;27;20675;-67
2023/10/30 04:29:05;;;;;;;2.00;0.90;;;16.00;72.00;;;;;;5135311;27;20205;-68
2023/10/30 04:31:31;;;;;;;4.10;1.17;;;16.00;72.00;;;;;;5135307;27;20516;-68
2023/10/30 04:33:56;;;;;;;1.70;1.05;;;16.00;72.00;;;;;;5134363;27;20697;-67
2023/10/30 04:36:22;;;;;;;2.35;1.10;;;16.00;72.00;;;;;;5134870;27;20249;-68
2023/10/30 04:38:49;;;;;;;1.85;0.85;;;16.00;72.00;;;;;;5135173;27;20172;-68
2023/10/30 04:41:15;;;;;;;3.53;1.10;;;16.00;72.10;;;;;;5134199;27;20180;-69
2023/10/30 04:43:40;;;;;;;2.33;0.80;;;16.00;72.00;;;;;;5134980;27;20180;-69
2023/10/30 04:46:06;;;;;;;2.25;1.20;;;16.00;72.10;;;;;;5134779;27;20625;-68
2023/10/30 04:48:32;;;;;;;1.90;0.90;;;15.90;72.00;;;;;;5134177;27;20581;-69
2023/10/30 04:50:58;;;;;;;1.85;0.93;;;15.90;72.00;;;;;;5134844;27;20181;-69
2023/10/30 04:53:24;;;;;;;2.35;1.10;;;16.00;72.00;;;;;;5116922;27;20187;-69
2023/10/30 04:55:50;;;;;;;2.33;1.08;;;16.00;72.10;;;;;;5134034;27;20704;-69
2023/10/30 04:58:16;;;;;;;4.80;1.10;;;15.90;72.00;;;;;;5134644;27;20238;-67
2023/10/30 05:00:42;;;;;;;1.88;1.15;;;15.90;72.00;;;;;;5134808;27;20196;-68
2023/10/30 05:03:09;;;;;;;1.52;0.90;;;15.90;72.00;;;;;;5133413;27;20164;-67
2023/10/30 05:05:35;;;;;;;2.17;1.02;;;15.90;72.00;;;;;;5134843;27;20169;-68
2023/10/30 05:08:01;;;;;;;2.30;1.02;;;16.00;72.10;;;;;;5134455;27;20184;-68
2023/10/30 05:10:26;;;;;;;1.65;0.93;;;16.00;72.10;;;;;;5134012;27;20169;-68
2023/10/30 05:12:52;;;;;;;4.78;1.40;;;15.90;72.00;;;;;;5134477;27;20179;-68
2023/10/30 05:15:18;;;;;;;2.28;1.02;;;15.90;72.00;;;;;;5134121;27;20769;-68
2023/10/30 05:17:43;;;;;;;3.25;1.20;;;15.90;72.00;;;;;;5133960;27;20520;-68
2023/10/30 05:20:09;;;;;;;2.97;1.10;;;15.90;72.10;;;;;;5134321;27;20172;-67
2023/10/30 05:22:35;;;;;;;2.95;1.25;;;15.90;72.10;;;;;;5132955;27;20175;-68
2023/10/30 05:25:02;;;;;;;1.95;1.15;;;15.90;72.00;;;;;;5133893;27;20251;-67
2023/10/30 05:27:28;;;;;;;1.67;0.93;;;15.90;72.00;;;;;;5134388;27;20541;-68
2023/10/30 05:29:54;;;;;;;3.20;1.05;;;15.90;72.10;;;;;;5133261;27;20200;-67
2023/10/30 05:32:20;;;;;;;1.13;0.98;;;15.90;72.10;;;;;;5134114;27;20625;-67
2023/10/30 05:34:46;;;;;;;3.08;0.98;;;15.90;72.10;;;;;;5133937;27;20212;-68
2023/10/30 05:37:15;;;;;;;1.73;1.10;;;15.90;72.00;;;;;;5133074;27;20172;-68
2023/10/30 05:39:41;;;;;;;1.92;1.15;;;15.90;72.10;;;;;;5134185;27;20259;-68
2023/10/30 05:42:06;;;;;;;1.33;0.82;;;15.90;72.10;;;;;;5133905;27;20255;-68
2023/10/30 05:44:32;;;;;;;3.75;1.23;;;15.90;72.10;;;;;;5133303;27;20168;-67
2023/10/30 05:46:58;;;;;;;1.17;0.90;;;15.90;72.10;;;;;;5133757;27;20172;-68
2023/10/30 05:49:25;;;;;;;1.35;1.17;;;15.90;72.10;;;;;;5133780;27;20235;-69
2023/10/30 05:51:51;;;;;;;1.65;1.02;;;15.90;72.10;;;;;;5133419;27;20168;-67
2023/10/30 05:54:16;;;;;;;2.25;0.98;;;15.90;72.10;;;;;;5133441;27;20662;-68
2023/10/30 05:56:42;;;;;;;1.52;1.00;;;15.90;72.10;;;;;;5133800;27;20188;-68
2023/10/30 05:59:08;;;;;;;1.38;0.90;;;15.90;72.10;;;;;;5132662;27;20263;-68
2023/10/30 06:01:33;;;;;;;2.83;1.42;;;15.90;72.10;;;;;;5133715;27;20255;-67
2023/10/30 06:03:59;;;;;;;2.58;1.23;;;15.90;72.10;;;;;;5133671;28;20180;-67
2023/10/30 06:06:24;;;;;;;1.52;1.08;;;15.90;72.10;;;;;;5133213;28;20168;-68
2023/10/30 06:08:50;;;;;;;2.17;0.90;;;15.80;72.10;;;;;;5133796;28;20248;-68
2023/10/30 06:11:15;;;;;;;1.17;0.75;;;15.90;72.10;;;;;;5133502;28;20164;-69
2023/10/30 06:13:41;;;;;;;1.85;1.08;;;15.80;72.10;;;;;;5133035;28;20630;-68
2023/10/30 06:16:07;;;;;;;2.30;1.10;;;15.80;72.10;;;;;;5133636;28;20182;-67
2023/10/30 06:18:32;;;;;;;1.23;0.90;;;15.90;72.10;;;;;;5115355;28;20305;-67
2023/10/30 06:21:00;;;;;;;2.72;0.82;;;15.90;72.10;;;;;;5132811;28;20189;-66
2023/10/30 06:23:26;;;;;;;1.40;0.95;;;15.90;72.10;;;;;;5133528;28;20251;-67
2023/10/30 06:25:51;;;;;;;2.38;1.38;;;15.80;72.10;;;;;;5132984;28;20271;-67
2023/10/30 06:28:17;;;;;;;1.85;0.95;;;15.80;72.10;;;;;;5133268;28;20264;-67
2023/10/30 06:30:43;;;;;;;1.73;1.00;;;15.80;72.10;;;;;;5133370;28;20677;-68
2023/10/30 06:33:08;;;;;;;1.58;0.75;;;15.80;72.10;;;;;;5134043;27;20188;-67
2023/10/30 06:35:34;;;;;;;3.38;1.33;;;15.80;72.10;;;;;;5137682;27;20257;-68
2023/10/30 06:38:00;;;;;;;3.28;1.17;;;15.80;72.10;;;;;;5137005;27;20172;-66
2023/10/30 06:40:25;;;;;;;1.20;1.00;;;15.80;72.10;;;;;;5136860;27;20237;-67
2023/10/30 06:42:51;;;;;;;2.72;1.10;;;15.80;72.10;;;;;;5137464;27;20175;-68
2023/10/30 06:45:16;;;;;;;2.25;1.30;;;15.80;72.10;;;;;;5137072;27;20631;-67
2023/10/30 06:47:42;;;;;;;1.88;1.00;;;15.80;72.10;;;;;;5136328;27;20261;-68
2023/10/30 06:50:08;;;;;;;1.08;0.93;;;15.80;72.10;;;;;;5137178;27;20217;-69
2023/10/30 06:52:33;;;;;;;2.75;1.30;;;15.80;72.10;;;;;;5137412;27;20268;-68
2023/10/30 06:54:59;;;;;;;1.48;1.00;;;15.80;72.20;;;;;;5136197;27;20265;-68
2023/10/30 06:57:25;;;;;;;2.13;1.00;;;15.80;72.20;;;;;;5137352;27;20169;-68
2023/10/30 06:59:52;;;;;;;2.08;1.02;;;15.80;72.20;;;;;;5137116;27;20184;-68
2023/10/30 07:02:18;;;;;;;2.03;1.13;;;15.80;72.10;;;;;;5136308;27;20185;-66
2023/10/30 07:04:44;;;;;;;1.67;0.85;;;15.80;72.10;;;;;;5137142;27;20199;-67
2023/10/30 07:07:09;;;;;;;1.83;1.08;;;15.80;72.10;;;;;;5136686;27;20168;-68
2023/10/30 07:09:35;;;;;;;2.30;1.15;;;15.90;72.10;;;;;;5136504;27;20241;-70
2023/10/30 07:12:00;;;;;;;2.10;1.08;;;15.90;71.90;;;;;;5136829;27;20576;-69
2023/10/30 07:14:26;;;;;;;2.78;1.15;;;15.90;71.90;;;;;;5137005;27;20538;-68
2023/10/30 07:16:52;;;;;;;2.45;1.17;;;16.10;71.90;;;;;;5136281;27;20214;-67
2023/10/30 07:19:22;;;;;;;1.20;0.80;;;16.20;71.70;;;;;;5136671;27;20268;-67
2023/10/30 07:21:47;;;;;;;2.10;1.30;;;16.40;71.60;;;;;;5136522;27;20173;-66
2023/10/30 07:24:13;;;;;;;1.85;1.00;;;16.50;71.30;;;;;;5135398;27;20594;-67
2023/10/30 07:26:41;;;;;;;1.00;0.80;;;16.60;71.00;;;;;;5136456;27;20176;-67
2023/10/30 07:29:07;;;;;;;1.92;1.02;;;16.90;70.60;;;;;;5135801;27;20211;-67
2023/10/30 07:31:33;;;;;;;1.08;0.73;;;17.00;70.10;;;;;;5136596;27;20653;-69
2023/10/30 07:33:58;;;;;;;1.27;0.98;;;17.20;69.80;;;;;;5135950;27;20555;-68
2023/10/30 07:36:24;;;;;;;1.08;0.90;;;17.40;69.30;;;;;;5135638;27;20180;-64
2023/10/30 07:38:52;;;;;;;4.50;1.33;;;17.60;68.80;;;;;;5136217;27;20176;-67
2023/10/30 07:41:18;;;;;;;4.75;1.10;;;17.70;68.70;;;;;;5135944;27;20176;-65
2023/10/30 07:43:43;;;;;;;2.42;0.93;;;17.70;68.80;;;;;;5135492;27;20634;-68
2023/10/30 07:46:13;;;;;;;2.15;0.98;;;17.90;68.60;;;;;;5135233;27;20176;-66
2023/10/30 07:48:38;;;;;;;5.30;1.27;;;18.00;68.40;;;;;;5136223;27;20220;-72
2023/10/30 07:51:04;;;;;;;2.95;1.20;;;18.00;68.40;;;;;;5135328;27;20312;-76
2023/10/30 07:53:30;;;;;;;6.45;1.42;;;18.10;68.50;;;;;;5135963;27;20537;-71
2023/10/30 07:55:56;;;;;;;2.40;1.10;;;18.10;68.80;;;;;;5135889;27;20261;-72
2023/10/30 07:58:22;;;;;;;4.97;1.35;;;18.00;69.10;;;;;;5134681;27;20543;-72
2023/10/30 08:00:48;;;;;;;5.88;1.48;;;17.90;69.30;;;;;;5136168;27;20179;-73
2023/10/30 08:03:14;;;;;;;6.43;1.38;;;17.90;69.70;;;;;;5135488;27;20204;-72
2023/10/30 08:05:40;;;;;;;9.23;1.67;;;17.70;69.60;;;;;;5135155;27;20263;-72
2023/10/30 08:08:06;;;;;;;6.40;1.55;;;17.70;70.30;;;;;;5135498;27;20177;-72
2023/10/30 08:10:31;;;;;;;3.30;1.38;;;17.60;70.50;;;;;;5136076;27;20278;-72
2023/10/30 08:12:58;;;;;;;11.10;1.67;;;17.60;70.80;;;;;;5135323;27;20294;-72
2023/10/30 08:15:23;;;;;;;6.97;1.40;;;17.60;71.00;;;;;;5135679;27;20213;-72
2023/10/30 08:17:49;;;;;;;8.88;1.83;;;17.50;71.20;;;;;;5135960;27;20222;-72
2023/10/30 08:20:17;;;;;;;4.32;1.63;;;17.40;71.30;;;;;;5134817;27;20252;-72
2023/10/30 08:22:43;;;;;;;6.85;1.67;;;17.40;71.20;;;;;;5135568;27;20221;-72
2023/10/30 08:25:08;;;;;;;9.10;1.70;;;17.30;71.30;;;;;;5135453;27;20169;-72
2023/10/30 08:27:34;;;;;;;4.72;1.60;;;17.20;71.30;;;;;;5134812;27;20225;-72
2023/10/30 08:29:59;;;;;;;5.38;1.50;;;17.20;71.30;;;;;;5135162;27;20187;-71
2023/10/30 08:32:25;;;;;;;7.05;1.85;;;17.20;71.30;;;;;;5135012;27;20168;-72
2023/10/30 08:34:51;;;;;;;4.88;1.50;;;17.20;71.30;;;;;;5135527;27;20235;-72
2023/10/30 08:37:16;;;;;;;3.70;1.65;;;17.20;71.40;;;;;;5134972;27;20251;-72
2023/10/30 08:39:42;;;;;;;5.60;1.85;;;17.20;71.40;;;;;;5134776;27;20226;-73
2023/10/30 08:42:10;;;;;;;5.20;1.27;;;17.20;71.40;;;;;;5134827;27;20168;-71
2023/10/30 08:44:36;;;;;;;6.55;1.70;;;17.20;71.50;;;;;;5135300;27;20210;-72
2023/10/30 08:47:01;;;;;;;2.33;1.10;;;17.20;71.60;;;;;;5133923;27;20200;-71
2023/10/30 08:49:27;;;;;;;6.03;1.55;;;17.20;71.70;;;;;;5135063;27;20180;-72
2023/10/30 08:51:53;;;;;;;4.47;1.55;;;17.30;71.80;;;;;;5134902;27;20181;-72
2023/10/30 08:54:19;;;;;;;4.30;1.40;;;17.20;71.80;;;;;;5133909;27;20303;-72
2023/10/30 08:56:44;;;;;;;2.10;1.17;;;17.20;71.80;;;;;;5134008;27;20169;-73
2023/10/30 08:59:12;;;;;;;4.85;1.38;;;17.20;71.90;;;;;;5134768;27;20322;-72
2023/10/30 09:01:38;;;;;;;5.97;1.42;;;17.20;72.10;;;;;;5134179;27;20168;-72
2023/10/30 09:04:04;;;;;;;5.30;1.38;;;17.10;73.10;;;;;;5134452;27;20176;-72
2023/10/30 09:06:30;;;;;;;4.35;1.42;;;17.10;72.30;;;;;;5134815;27;20535;-72
2023/10/30 09:08:55;;;;;;;4.85;1.58;;;17.10;72.40;;;;;;5133995;27;20646;-72
2023/10/30 09:11:22;;;;;;;3.55;1.25;;;17.10;72.50;;;;;;5134442;27;20659;-72
2023/10/30 09:13:47;;;;;;;3.15;1.15;;;17.10;72.50;;;;;;5134656;27;20172;-71
2023/10/30 09:16:13;;;;;;;4.00;1.33;;;17.10;72.50;;;;;;5133523;27;20549;-72
2023/10/30 09:18:38;;;;;;;3.60;1.45;;;17.10;72.50;;;;;;5134514;27;20626;-71
2023/10/30 09:21:04;;;;;;;4.28;1.30;;;17.00;72.50;;;;;;5134238;27;20546;-73
2023/10/30 09:23:30;;;;;;;3.33;1.65;;;17.00;72.60;;;;;;5133818;27;20623;-71
2023/10/30 09:25:55;;;;;;;4.03;1.20;;;17.00;72.50;;;;;;5134451;27;20658;-71
2023/10/30 09:28:21;;;;;;;3.20;1.40;;;17.00;72.50;;;;;;5134191;27;20271;-71
2023/10/30 09:30:46;;;;;;;1.90;1.10;;;17.00;72.60;;;;;;5133654;27;20164;-72
2023/10/30 09:33:12;;;;;;;4.43;1.88;;;17.00;72.60;;;;;;5134035;27;20179;-72
2023/10/30 09:35:38;;;;;;;3.65;1.38;;;17.00;72.70;;;;;;5133811;27;20558;-73
2023/10/30 09:38:04;;;;;;;2.50;1.10;;;17.00;72.70;;;;;;5133686;27;20195;-72
2023/10/30 09:40:29;;;;;;;2.90;1.00;;;17.00;72.70;;;;;;5134274;27;20649;-72
2023/10/30 09:42:55;;;;;;;3.92;1.30;;;17.00;72.70;;;;;;5115225;27;20165;-72
2023/10/30 09:45:24;;;;;;;2.83;1.20;;;17.00;72.60;;;;;;5133914;27;20164;-72
2023/10/30 09:47:54;;;;;;;3.08;1.20;;;17.00;72.60;;;;;;5133976;27;20269;-72
2023/10/30 09:50:20;;;;;;;4.07;1.33;;;17.00;72.60;;;;;;5132980;27;20207;-72
2023/10/30 09:52:51;;;;;;;2.72;1.23;;;17.10;72.70;;;;;;5134257;27;20177;-72
2023/10/30 09:55:18;;;;;;;3.42;1.00;;;17.10;72.70;;;;;;5115654;27;20674;-72
2023/10/30 09:57:46;;;;;;;1.40;0.90;;;17.00;72.80;;;;;;5133287;27;20180;-72
2023/10/30 10:00:12;;;;;;;3.67;1.45;;;17.00;72.70;;;;;;5133640;27;20175;-72
2023/10/30 10:02:38;;;;;;;3.67;1.45;;;17.00;72.90;;;;;;5134043;27;20194;-72
2023/10/30 10:05:05;;;;;;;2.25;1.10;;;17.00;72.90;;;;;;5132818;28;20271;-71
2023/10/30 10:07:32;;;;;;;2.53;1.17;;;17.00;73.00;;;;;;5115510;28;20567;-71
2023/10/30 10:09:59;;;;;;;4.20;1.13;;;17.00;73.10;;;;;;5115772;28;20176;-72
2023/10/30 10:12:24;;;;;;;3.67;1.20;;;17.00;73.10;;;;;;5133055;28;20180;-71
2023/10/30 10:14:50;;;;;;;3.22;1.23;;;17.00;73.10;;;;;;5133791;28;20196;-72
2023/10/30 10:17:16;;;;;;;4.60;0.90;;;17.00;73.10;;;;;;5133426;28;20172;-72
2023/10/30 10:19:48;;;;;;;3.10;1.25;;;16.90;73.10;;;;;;5132835;28;20635;-71
2023/10/30 10:22:29;;;;;;;2.70;0.93;;;16.90;73.10;;;;;;5133743;28;20195;-73
2023/10/30 10:24:57;;;;;;;3.92;1.10;;;17.00;73.20;;;;;;5133124;28;20579;-73
2023/10/30 10:27:23;;;;;;;1.60;1.02;;;17.00;73.20;;;;;;5133509;28;20211;-72
2023/10/30 10:29:54;;;;;;;2.35;1.17;;;16.90;73.10;;;;;;5133543;28;20196;-72
2023/10/30 10:32:32;;;;;;;3.22;1.00;;;16.90;73.20;;;;;;5132768;28;20200;-72
2023/10/30 10:34:58;;;;;;;3.03;1.00;;;16.90;74.10;;;;;;5133172;28;20603;-72
2023/10/30 10:37:24;;;;;;;2.08;1.10;;;16.90;73.20;;;;;;5132991;28;20172;-72
2023/10/30 10:39:53;;;;;;;2.35;1.17;;;16.90;73.30;;;;;;5132158;28;20217;-73
2023/10/30 10:42:20;;;;;;;2.67;1.08;;;16.90;73.40;;;;;;5133174;28;20563;-72
2023/10/30 10:44:46;;;;;;;2.55;1.10;;;16.90;73.40;;;;;;5133600;28;20184;-72
2023/10/30 10:47:12;;;;;;;1.83;0.80;;;16.90;73.30;;;;;;5132557;28;20164;-71
2023/10/30 10:49:37;;;;;;;2.60;1.30;;;16.90;73.40;;;;;;5133391;28;20176;-78
2023/10/30 10:52:05;;;;;;;3.75;1.23;;;16.90;73.40;;;;;;5133074;28;20171;-75
2023/10/30 10:54:32;;;;;;;4.07;1.20;;;16.90;73.50;;;;;;5097411;28;20200;-73
2023/10/30 10:56:57;;;;;;;2.10;0.90;;;16.90;73.40;;;;;;5098248;28;20197;-73
2023/10/30 10:59:28;;;;;;;2.13;1.27;;;16.90;73.40;;;;;;5098090;28;20224;-72
2023/10/30 11:01:55;;;;;;;3.20;0.90;;;16.90;74.30;;;;;;5132715;28;20630;-72
2023/10/30 11:04:20;;;;;;;4.03;1.33;;;16.90;73.50;;;;;;5114990;28;20191;-73
2023/10/30 11:06:48;;;;;;;3.30;1.38;;;16.90;73.50;;;;;;5115155;28;20635;-73
2023/10/30 11:09:28;;;;;;;3.22;1.00;;;16.90;73.40;;;;;;5097360;28;20173;-73
2023/10/30 11:12:19;;;;;;;2.88;1.10;;;16.90;73.50;;;;;;5098576;28;20183;-68
2023/10/30 11:15:09;;;;;;;2.22;1.20;;;17.00;73.40;;;;;;5132387;28;20215;-69
2023/10/30 11:17:35;;;;;;;1.92;0.98;;;17.00;73.40;;;;;;5133142;28;20225;-68
2023/10/30 11:20:07;;;;;;;3.13;1.17;;;17.00;73.40;;;;;;5098655;27;20176;-67
2023/10/30 11:22:40;;;;;;;2.75;1.05;;;17.00;73.40;;;;;;5135933;27;20241;-68
2023/10/30 11:25:07;;;;;;;2.63;1.02;;;17.00;73.30;;;;;;5136487;27;20325;-68
2023/10/30 11:27:33;;;;;;;1.38;1.00;;;17.00;73.30;;;;;;5136852;27;20173;-68
2023/10/30 11:30:08;;;;;;;4.88;1.27;;;17.00;73.30;;;;;;5135757;27;20168;-68
2023/10/30 11:32:45;;;;;;;2.22;1.00;;;17.00;73.20;;;;;;5136789;27;20172;-69
2023/10/30 11:35:11;;;;;;;2.92;1.00;;;17.00;73.20;;;;;;5136380;27;20298;-69
2023/10/30 11:37:37;;;;;;;3.03;1.55;;;17.00;73.20;;;;;;5136074;27;20210;-68
2023/10/30 11:40:08;;;;;;;5.97;3.20;;;17.00;73.20;;;;;;5136015;27;20173;-69
2023/10/30 11:42:39;;;;;;;6.72;3.70;;;17.00;73.20;;;;;;5117463;27;20181;-68
2023/10/30 11:45:19;;;;;;;10.85;7.97;;;17.00;73.20;;;;;;5118030;27;20631;-69
2023/10/30 11:48:05;;;;;;;12.07;5.20;;;17.00;73.30;;;;;;5136175;27;20228;-69
2023/10/30 11:50:39;;;;;;;10.40;6.15;;;17.00;73.20;;;;;;5135255;27;20182;-69
2023/10/30 11:53:12;;;;;;;9.88;6.10;;;17.00;73.20;;;;;;5117194;27;20683;-70
2023/10/30 11:55:40;;;;;;;9.80;6.40;;;17.00;73.20;;;;;;5136235;27;20208;-70
2023/10/30 11:58:11;;;;;;;12.13;7.45;;;17.00;73.20;;;;;;5135303;27;20202;-70
2023/10/30 12:00:46;;;;;;;12.40;6.70;;;17.10;73.20;;;;;;5136251;27;20172;-70
2023/10/30 12:03:12;;;;;;;12.90;6.80;;;17.10;73.20;;;;;;5135767;27;20164;-71
2023/10/30 12:05:37;;;;;;;11.63;6.63;;;17.00;73.30;;;;;;5135278;27;20191;-70
2023/10/30 12:08:04;;;;;;;11.82;7.72;;;17.10;73.30;;;;;;5135577;27;20200;-70
2023/10/30 12:10:30;;;;;;;11.95;7.97;;;17.00;73.20;;;;;;5135285;27;20180;-71
2023/10/30 12:12:56;;;;;;;12.57;8.73;;;17.00;73.30;;;;;;5135904;27;20698;-69
2023/10/30 12:15:21;;;;;;;14.35;8.55;;;17.00;73.40;;;;;;5100220;27;20204;-70
2023/10/30 12:17:47;;;;;;;15.27;8.93;;;17.10;73.40;;;;;;5135097;27;20168;-69
2023/10/30 12:20:12;;;;;;;12.38;8.93;;;17.00;73.40;;;;;;5135343;27;20172;-73
2023/10/30 12:22:41;;;;;;;16.08;9.00;;;17.00;73.50;;;;;;5134964;27;20203;-73
2023/10/30 12:25:08;;;;;;;15.65;9.35;;;17.00;73.40;;;;;;5134509;27;20177;-73
2023/10/30 12:27:33;;;;;;;11.68;8.35;;;17.00;73.40;;;;;;5135295;27;20176;-73
2023/10/30 12:30:10;;;;;;;12.52;8.80;;;17.00;73.50;;;;;;5135125;27;20181;-74
2023/10/30 12:32:36;;;;;;;17.55;9.15;;;17.00;73.50;;;;;;5117683;27;20168;-73
2023/10/30 12:35:11;;;;;;;13.02;9.02;;;17.00;73.40;;;;;;5134842;27;20205;-73
2023/10/30 12:37:38;;;;;;;14.38;9.32;;;17.00;73.50;;;;;;5135074;27;20630;-76
2023/10/30 12:40:04;;;;;;;12.80;9.00;;;17.00;73.50;;;;;;5133859;27;20559;-75
2023/10/30 12:42:33;;;;;;;17.92;9.30;;;17.00;73.60;;;;;;5134839;27;20169;-73